sensor_id;sensor_type;location;lat;lon;timestamp;pressure;altitude;pressure_sealevel;temperature;humidity
71697;BME280;68167;59.120;37.898;2024-02-15T00:01:11;101904.63;;;-14.88;64.92
71697;BME280;68167;59.120;37.898;2024-02-15T00:03:38;101953.91;;;-14.53;64.65
71697;BME280;68167;59.120;37.898;2024-02-15T00:06:04;101806.63;;;-15.44;64.26
71697;BME280;68167;59.120;37.898;2024-02-15T00:08:31;101885.41;;;-15.00;64.13
71697;BME280;68167;59.120;37.898;2024-02-15T00:10:58;101932.50;;;-14.80;64.04
71697;BME280;68167;59.120;37.898;2024-02-15T00:13:25;101948.44;;;-14.71;63.83
71697;BME280;68167;59.120;37.898;2024-02-15T00:15:51;101960.28;;;-14.68;64.11
71697;BME280;68167;59.120;37.898;2024-02-15T00:18:18;101757.72;;;-15.89;64.07
71697;BME280;68167;59.120;37.898;2024-02-15T00:20:45;101928.28;;;-14.81;64.95
71697;BME280;68167;59.120;37.898;2024-02-15T00:23:11;101962.75;;;-14.65;64.70
71697;BME280;68167;59.120;37.898;2024-02-15T00:25:37;101951.91;;;-14.73;64.83
71697;BME280;68167;59.120;37.898;2024-02-15T00:28:04;101832.19;;;-15.46;63.87
71697;BME280;68167;59.120;37.898;2024-02-15T00:30:31;101853.91;;;-15.31;64.94
71697;BME280;68167;59.120;37.898;2024-02-15T00:32:57;101862.44;;;-15.32;64.67
71697;BME280;68167;59.120;37.898;2024-02-15T00:35:24;101926.81;;;-14.90;65.02
71697;BME280;68167;59.120;37.898;2024-02-15T00:37:50;101958.53;;;-14.66;65.25
71697;BME280;68167;59.120;37.898;2024-02-15T00:40:17;101976.25;;;-14.60;65.37
71697;BME280;68167;59.120;37.898;2024-02-15T00:42:44;101956.84;;;-14.67;65.47
71697;BME280;68167;59.120;37.898;2024-02-15T00:45:11;101868.09;;;-15.21;64.73
71697;BME280;68167;59.120;37.898;2024-02-15T00:47:37;101868.94;;;-15.20;65.16
71697;BME280;68167;59.120;37.898;2024-02-15T00:50:04;101923.31;;;-14.86;65.14
71697;BME280;68167;59.120;37.898;2024-02-15T00:52:32;101934.97;;;-14.77;65.04
71697;BME280;68167;59.120;37.898;2024-02-15T00:54:58;101914.00;;;-14.88;64.01
71697;BME280;68167;59.120;37.898;2024-02-15T00:57:24;101942.44;;;-14.70;65.05
71697;BME280;68167;59.120;37.898;2024-02-15T00:59:51;101836.13;;;-15.34;64.82
71697;BME280;68167;59.120;37.898;2024-02-15T01:02:18;101957.81;;;-14.71;64.06
71697;BME280;68167;59.120;37.898;2024-02-15T01:04:44;101950.19;;;-14.73;65.01
71697;BME280;68167;59.120;37.898;2024-02-15T01:07:13;101958.44;;;-14.63;64.59
71697;BME280;68167;59.120;37.898;2024-02-15T01:09:39;101948.34;;;-14.68;64.98
71697;BME280;68167;59.120;37.898;2024-02-15T01:12:06;101951.88;;;-14.72;64.38
71697;BME280;68167;59.120;37.898;2024-02-15T01:14:33;101856.53;;;-15.34;63.86
71697;BME280;68167;59.120;37.898;2024-02-15T01:17:00;101845.78;;;-15.45;64.40
71697;BME280;68167;59.120;37.898;2024-02-15T01:19:27;101849.72;;;-15.34;64.66
71697;BME280;68167;59.120;37.898;2024-02-15T01:21:53;101929.41;;;-14.91;64.31
71697;BME280;68167;59.120;37.898;2024-02-15T01:24:19;101931.72;;;-14.82;64.38
71697;BME280;68167;59.120;37.898;2024-02-15T01:26:46;101955.53;;;-14.82;64.54
71697;BME280;68167;59.120;37.898;2024-02-15T01:29:14;101844.84;;;-15.43;64.60
71697;BME280;68167;59.120;37.898;2024-02-15T01:31:40;101936.13;;;-14.87;64.08
71697;BME280;68167;59.120;37.898;2024-02-15T01:34:06;101943.63;;;-14.81;64.68
71697;BME280;68167;59.120;37.898;2024-02-15T01:36:33;101923.50;;;-14.93;64.21
71697;BME280;68167;59.120;37.898;2024-02-15T01:38:59;101901.72;;;-15.05;64.44
71697;BME280;68167;59.120;37.898;2024-02-15T01:41:26;101895.84;;;-15.09;64.63
71697;BME280;68167;59.120;37.898;2024-02-15T01:43:52;101949.44;;;-14.76;64.48
71697;BME280;68167;59.120;37.898;2024-02-15T01:46:20;101866.13;;;-15.11;64.33
71697;BME280;68167;59.120;37.898;2024-02-15T01:48:47;101915.50;;;-14.81;65.03
71697;BME280;68167;59.120;37.898;2024-02-15T01:51:15;101894.53;;;-14.92;64.45
71697;BME280;68167;59.120;37.898;2024-02-15T01:53:43;101918.69;;;-14.73;64.48
71697;BME280;68167;59.120;37.898;2024-02-15T01:56:12;101907.81;;;-14.80;64.65
71697;BME280;68167;59.120;37.898;2024-02-15T01:58:40;101926.19;;;-14.67;65.17
71697;BME280;68167;59.120;37.898;2024-02-15T02:01:07;101905.88;;;-14.72;64.73
71697;BME280;68167;59.120;37.898;2024-02-15T02:03:35;101800.44;;;-15.36;64.18
71697;BME280;68167;59.120;37.898;2024-02-15T02:06:02;101909.31;;;-14.73;65.67
71697;BME280;68167;59.120;37.898;2024-02-15T02:08:29;101886.56;;;-14.82;65.13
71697;BME280;68167;59.120;37.898;2024-02-15T02:10:56;101905.13;;;-14.75;65.42
71697;BME280;68167;59.120;37.898;2024-02-15T02:13:23;101921.84;;;-14.63;65.11
71697;BME280;68167;59.120;37.898;2024-02-15T02:15:50;101907.81;;;-14.80;64.37
71697;BME280;68167;59.120;37.898;2024-02-15T02:18:17;101822.28;;;-15.25;64.26
71697;BME280;68167;59.120;37.898;2024-02-15T02:20:43;101915.03;;;-14.64;65.06
71697;BME280;68167;59.120;37.898;2024-02-15T02:23:15;101892.56;;;-14.83;65.53
71697;BME280;68167;59.120;37.898;2024-02-15T02:25:42;101912.44;;;-14.63;65.10
71697;BME280;68167;59.120;37.898;2024-02-15T02:28:10;101877.94;;;-14.78;65.82
71697;BME280;68167;59.120;37.898;2024-02-15T02:30:36;101914.69;;;-14.52;65.69
71697;BME280;68167;59.120;37.898;2024-02-15T02:33:03;101821.78;;;-15.07;64.98
71697;BME280;68167;59.120;37.898;2024-02-15T02:35:33;101883.63;;;-14.68;64.76
71697;BME280;68167;59.120;37.898;2024-02-15T02:37:59;101922.09;;;-14.43;65.15
71697;BME280;68167;59.120;37.898;2024-02-15T02:40:26;101802.44;;;-15.16;64.44
71697;BME280;68167;59.120;37.898;2024-02-15T02:42:56;101840.06;;;-14.93;65.33
71697;BME280;68167;59.120;37.898;2024-02-15T02:45:25;101916.25;;;-14.47;65.08
71697;BME280;68167;59.120;37.898;2024-02-15T02:47:52;101899.28;;;-14.49;64.94
71697;BME280;68167;59.120;37.898;2024-02-15T02:50:22;101884.22;;;-14.58;65.21
71697;BME280;68167;59.120;37.898;2024-02-15T02:52:49;101890.94;;;-14.56;64.66
71697;BME280;68167;59.120;37.898;2024-02-15T02:55:16;101874.88;;;-14.59;64.50
71697;BME280;68167;59.120;37.898;2024-02-15T02:57:42;101781.19;;;-15.16;64.99
71697;BME280;68167;59.120;37.898;2024-02-15T03:00:11;101813.28;;;-15.08;64.37
71697;BME280;68167;59.120;37.898;2024-02-15T03:02:44;101922.31;;;-14.51;64.63
71697;BME280;68167;59.120;37.898;2024-02-15T03:05:11;101812.59;;;-15.14;64.04
71697;BME280;68167;59.120;37.898;2024-02-15T03:07:39;101830.41;;;-15.11;64.19
71697;BME280;68167;59.120;37.898;2024-02-15T03:10:09;101899.97;;;-14.74;63.78
71697;BME280;68167;59.120;37.898;2024-02-15T03:12:40;101853.88;;;-14.98;63.98
71697;BME280;68167;59.120;37.898;2024-02-15T03:15:07;101889.00;;;-14.77;64.31
71697;BME280;68167;59.120;37.898;2024-02-15T03:17:40;101909.16;;;-14.67;64.22
71697;BME280;68167;59.120;37.898;2024-02-15T03:20:08;101902.34;;;-14.68;64.20
71697;BME280;68167;59.120;37.898;2024-02-15T03:22:38;101821.06;;;-15.12;63.77
71697;BME280;68167;59.120;37.898;2024-02-15T03:25:05;101795.41;;;-15.39;64.27
71697;BME280;68167;59.120;37.898;2024-02-15T03:27:36;101910.19;;;-14.74;63.45
71697;BME280;68167;59.120;37.898;2024-02-15T03:30:06;101902.63;;;-14.77;63.63
71697;BME280;68167;59.120;37.898;2024-02-15T03:32:33;101868.44;;;-15.02;64.01
71697;BME280;68167;59.120;37.898;2024-02-15T03:34:59;101807.38;;;-15.41;64.38
71697;BME280;68167;59.120;37.898;2024-02-15T03:37:27;101824.81;;;-15.25;64.46
71697;BME280;68167;59.120;37.898;2024-02-15T03:39:53;101818.03;;;-15.26;63.96
71697;BME280;68167;59.120;37.898;2024-02-15T03:42:20;101847.38;;;-15.10;64.53
71697;BME280;68167;59.120;37.898;2024-02-15T03:44:46;101799.81;;;-15.44;64.16
71697;BME280;68167;59.120;37.898;2024-02-15T03:47:14;101889.22;;;-14.85;64.18
71697;BME280;68167;59.120;37.898;2024-02-15T03:49:41;101885.13;;;-14.90;64.06
71697;BME280;68167;59.120;37.898;2024-02-15T03:52:08;101883.34;;;-14.88;64.13
71697;BME280;68167;59.120;37.898;2024-02-15T03:54:36;101852.38;;;-15.06;63.66
71697;BME280;68167;59.120;37.898;2024-02-15T03:57:03;101753.75;;;-15.69;63.87
71697;BME280;68167;59.120;37.898;2024-02-15T03:59:30;101818.97;;;-15.29;63.64
71697;BME280;68167;59.120;37.898;2024-02-15T04:01:58;101910.84;;;-14.67;63.56
71697;BME280;68167;59.120;37.898;2024-02-15T04:04:24;101888.16;;;-14.78;63.64
71697;BME280;68167;59.120;37.898;2024-02-15T04:06:52;101915.03;;;-14.64;63.39
71697;BME280;68167;59.120;37.898;2024-02-15T04:09:18;101909.84;;;-14.61;64.37
71697;BME280;68167;59.120;37.898;2024-02-15T04:11:49;101925.88;;;-14.56;64.47
71697;BME280;68167;59.120;37.898;2024-02-15T04:14:19;101889.84;;;-14.77;63.65
71697;BME280;68167;59.120;37.898;2024-02-15T04:16:46;101914.00;;;-14.57;63.78
71697;BME280;68167;59.120;37.898;2024-02-15T04:19:12;101927.22;;;-14.43;64.92
71697;BME280;68167;59.120;37.898;2024-02-15T04:21:38;101927.16;;;-14.42;63.76
71697;BME280;68167;59.120;37.898;2024-02-15T04:24:06;101922.81;;;-14.40;64.37
71697;BME280;68167;59.120;37.898;2024-02-15T04:26:32;101910.34;;;-14.49;64.68
71697;BME280;68167;59.120;37.898;2024-02-15T04:29:00;101923.44;;;-14.32;65.20
71697;BME280;68167;59.120;37.898;2024-02-15T04:31:27;101817.25;;;-14.97;64.80
71697;BME280;68167;59.120;37.898;2024-02-15T04:33:54;101914.22;;;-14.37;64.83
71697;BME280;68167;59.120;37.898;2024-02-15T04:36:21;101894.78;;;-14.41;64.07
71697;BME280;68167;59.120;37.898;2024-02-15T04:38:52;101902.09;;;-14.30;64.69
71697;BME280;68167;59.120;37.898;2024-02-15T04:41:19;101907.97;;;-14.28;64.48
71697;BME280;68167;59.120;37.898;2024-02-15T04:43:46;101875.13;;;-14.41;65.61
71697;BME280;68167;59.120;37.898;2024-02-15T04:46:13;101846.72;;;-14.58;64.36
71697;BME280;68167;59.120;37.898;2024-02-15T04:48:41;101901.84;;;-14.23;64.69
71697;BME280;68167;59.120;37.898;2024-02-15T04:51:10;101905.94;;;-14.17;64.84
71697;BME280;68167;59.120;37.898;2024-02-15T04:53:37;101931.97;;;-14.05;64.51
71697;BME280;68167;59.120;37.898;2024-02-15T04:56:05;101928.50;;;-14.02;65.51
71697;BME280;68167;59.120;37.898;2024-02-15T04:58:37;101873.19;;;-14.33;64.30
71697;BME280;68167;59.120;37.898;2024-02-15T05:01:14;101940.34;;;-14.00;65.13
71697;BME280;68167;59.120;37.898;2024-02-15T05:03:44;101929.41;;;-14.05;65.65
71697;BME280;68167;59.120;37.898;2024-02-15T05:06:11;101967.06;;;-13.80;65.05
71697;BME280;68167;59.120;37.898;2024-02-15T05:08:40;101977.16;;;-13.76;64.78
71697;BME280;68167;59.120;37.898;2024-02-15T05:11:10;101949.22;;;-13.83;65.40
71697;BME280;68167;59.120;37.898;2024-02-15T05:13:48;101922.16;;;-13.90;64.94
71697;BME280;68167;59.120;37.898;2024-02-15T05:16:17;101940.53;;;-13.78;65.41
71697;BME280;68167;59.120;37.898;2024-02-15T05:18:44;101871.56;;;-14.09;65.19
71697;BME280;68167;59.120;37.898;2024-02-15T05:21:11;101928.56;;;-13.77;65.94
71697;BME280;68167;59.120;37.898;2024-02-15T05:23:38;101866.22;;;-14.01;65.73
71697;BME280;68167;59.120;37.898;2024-02-15T05:26:05;101964.88;;;-13.40;65.21
71697;BME280;68167;59.120;37.898;2024-02-15T05:28:32;101956.41;;;-13.42;65.58
71697;BME280;68167;59.120;37.898;2024-02-15T05:31:15;101962.13;;;-13.34;65.67
71697;BME280;68167;59.120;37.898;2024-02-15T05:33:53;101972.75;;;-13.19;65.47
71697;BME280;68167;59.120;37.898;2024-02-15T05:36:20;101938.09;;;-13.29;65.88
71697;BME280;68167;59.120;37.898;2024-02-15T05:38:50;101939.88;;;-13.32;66.37
71697;BME280;68167;59.120;37.898;2024-02-15T05:41:16;101945.88;;;-13.33;65.88
71697;BME280;68167;59.120;37.898;2024-02-15T05:43:43;101889.56;;;-13.59;65.88
71697;BME280;68167;59.120;37.898;2024-02-15T05:46:10;101959.56;;;-13.09;65.50
71697;BME280;68167;59.120;37.898;2024-02-15T05:48:37;101946.91;;;-13.13;65.56
71697;BME280;68167;59.120;37.898;2024-02-15T05:51:04;101949.22;;;-13.06;65.75
71697;BME280;68167;59.120;37.898;2024-02-15T05:53:30;101894.66;;;-13.33;66.30
71697;BME280;68167;59.120;37.898;2024-02-15T05:55:58;101937.13;;;-13.02;66.08
71697;BME280;68167;59.120;37.898;2024-02-15T05:58:25;101864.94;;;-13.37;66.41
71697;BME280;68167;59.120;37.898;2024-02-15T06:00:51;101846.31;;;-13.42;65.01
71697;BME280;68167;59.120;37.898;2024-02-15T06:03:19;101918.69;;;-12.88;65.64
71697;BME280;68167;59.120;37.898;2024-02-15T06:05:48;101953.47;;;-12.81;64.92
71697;BME280;68167;59.120;37.898;2024-02-15T06:08:15;101933.06;;;-12.84;65.09
71697;BME280;68167;59.120;37.898;2024-02-15T06:10:41;101953.47;;;-12.81;65.57
71697;BME280;68167;59.120;37.898;2024-02-15T06:13:07;101951.56;;;-12.76;65.10
71697;BME280;68167;59.120;37.898;2024-02-15T06:15:36;101947.28;;;-12.76;64.90
71697;BME280;68167;59.120;37.898;2024-02-15T06:18:03;101869.47;;;-13.20;65.51
71697;BME280;68167;59.120;37.898;2024-02-15T06:20:35;101942.72;;;-12.68;65.97
71697;BME280;68167;59.120;37.898;2024-02-15T06:23:02;101800.59;;;-13.52;64.76
71697;BME280;68167;59.120;37.898;2024-02-15T06:25:34;101928.50;;;-12.76;65.27
71697;BME280;68167;59.120;37.898;2024-02-15T06:28:01;101920.97;;;-12.81;64.73
71697;BME280;68167;59.120;37.898;2024-02-15T06:30:39;101929.47;;;-12.79;65.28
71697;BME280;68167;59.120;37.898;2024-02-15T06:33:24;101918.47;;;-12.82;64.34
71697;BME280;68167;59.120;37.898;2024-02-15T06:36:09;101917.25;;;-12.72;64.80
71697;BME280;68167;59.120;37.898;2024-02-15T06:38:54;101916.53;;;-12.76;64.81
71697;BME280;68167;59.120;37.898;2024-02-15T06:41:38;101917.31;;;-12.74;64.27
71697;BME280;68167;59.120;37.898;2024-02-15T06:44:06;101937.50;;;-12.65;63.91
71697;BME280;68167;59.120;37.898;2024-02-15T06:46:33;101909.56;;;-12.72;64.92
71697;BME280;68167;59.120;37.898;2024-02-15T06:48:59;101902.94;;;-12.78;64.55
71697;BME280;68167;59.120;37.898;2024-02-15T06:51:25;101919.88;;;-12.74;64.32
71697;BME280;68167;59.120;37.898;2024-02-15T06:53:52;101934.81;;;-12.61;65.23
71697;BME280;68167;59.120;37.898;2024-02-15T06:56:22;101857.88;;;-13.07;64.09
71697;BME280;68167;59.120;37.898;2024-02-15T06:58:49;101886.66;;;-12.77;65.40
71697;BME280;68167;59.120;37.898;2024-02-15T07:01:16;101910.56;;;-12.53;65.06
71697;BME280;68167;59.120;37.898;2024-02-15T07:03:43;101923.28;;;-12.50;64.64
71697;BME280;68167;59.120;37.898;2024-02-15T07:06:13;101909.56;;;-12.49;64.78
71697;BME280;68167;59.120;37.898;2024-02-15T07:08:40;101886.16;;;-12.63;64.95
71697;BME280;68167;59.120;37.898;2024-02-15T07:11:07;101901.22;;;-12.54;64.51
71697;BME280;68167;59.120;37.898;2024-02-15T07:13:36;101891.84;;;-12.55;64.82
71697;BME280;68167;59.120;37.898;2024-02-15T07:16:08;101901.94;;;-12.50;65.07
71697;BME280;68167;59.120;37.898;2024-02-15T07:18:34;101895.25;;;-12.54;64.84
71697;BME280;68167;59.120;37.898;2024-02-15T07:21:01;101758.94;;;-13.33;64.88
71697;BME280;68167;59.120;37.898;2024-02-15T07:23:29;101783.28;;;-12.99;65.03
71697;BME280;68167;59.120;37.898;2024-02-15T07:25:55;101890.38;;;-12.39;64.32
71697;BME280;68167;59.120;37.898;2024-02-15T07:28:22;101807.59;;;-12.87;63.76
71697;BME280;68167;59.120;37.898;2024-02-15T07:30:48;101894.38;;;-12.32;64.67
71697;BME280;68167;59.120;37.898;2024-02-15T07:33:17;101851.50;;;-12.50;63.50
71697;BME280;68167;59.120;37.898;2024-02-15T07:35:44;101859.25;;;-12.51;63.71
71697;BME280;68167;59.120;37.898;2024-02-15T07:38:10;101899.56;;;-12.33;64.81
71697;BME280;68167;59.120;37.898;2024-02-15T07:40:37;101840.69;;;-12.58;64.34
71697;BME280;68167;59.120;37.898;2024-02-15T07:43:05;101802.53;;;-12.89;64.60
71697;BME280;68167;59.120;37.898;2024-02-15T07:45:32;101810.16;;;-12.87;64.38
71697;BME280;68167;59.120;37.898;2024-02-15T07:48:01;101809.56;;;-12.94;64.62
71697;BME280;68167;59.120;37.898;2024-02-15T07:50:30;101882.75;;;-12.40;64.47
71697;BME280;68167;59.120;37.898;2024-02-15T07:52:57;101880.69;;;-12.32;64.64
71697;BME280;68167;59.120;37.898;2024-02-15T07:55:24;101775.97;;;-12.86;64.95
71697;BME280;68167;59.120;37.898;2024-02-15T07:57:51;101872.00;;;-12.28;64.88
71697;BME280;68167;59.120;37.898;2024-02-15T08:00:17;101874.69;;;-12.31;64.31
71697;BME280;68167;59.120;37.898;2024-02-15T08:02:43;101855.50;;;-12.43;64.08
71697;BME280;68167;59.120;37.898;2024-02-15T08:05:11;101791.94;;;-12.80;64.83
71697;BME280;68167;59.120;37.898;2024-02-15T08:07:41;101796.63;;;-12.68;65.26
71697;BME280;68167;59.120;37.898;2024-02-15T08:10:08;101866.75;;;-12.25;65.36
71697;BME280;68167;59.120;37.898;2024-02-15T08:12:42;101847.00;;;-12.23;64.65
71697;BME280;68167;59.120;37.898;2024-02-15T08:15:10;101876.91;;;-12.00;65.38
71697;BME280;68167;59.120;37.898;2024-02-15T08:17:42;101792.28;;;-12.44;65.07
71697;BME280;68167;59.120;37.898;2024-02-15T08:20:10;101733.59;;;-12.73;64.85
71697;BME280;68167;59.120;37.898;2024-02-15T08:22:38;101836.03;;;-12.05;65.21
71697;BME280;68167;59.120;37.898;2024-02-15T08:25:12;101877.56;;;-11.75;65.57
71697;BME280;68167;59.120;37.898;2024-02-15T08:27:40;101802.13;;;-12.13;64.96
71697;BME280;68167;59.120;37.898;2024-02-15T08:30:11;101809.53;;;-12.05;65.12
71697;BME280;68167;59.120;37.898;2024-02-15T08:32:38;101786.03;;;-12.16;65.13
71697;BME280;68167;59.120;37.898;2024-02-15T08:35:12;101802.59;;;-12.03;65.41
71697;BME280;68167;59.120;37.898;2024-02-15T08:37:40;101836.88;;;-11.84;65.47
71697;BME280;68167;59.120;37.898;2024-02-15T08:40:08;101858.56;;;-11.50;66.26
71697;BME280;68167;59.120;37.898;2024-02-15T08:42:42;101875.06;;;-11.36;65.92
71697;BME280;68167;59.120;37.898;2024-02-15T08:45:10;101817.19;;;-11.65;65.97
71697;BME280;68167;59.120;37.898;2024-02-15T08:47:37;101839.41;;;-11.43;66.11
71697;BME280;68167;59.120;37.898;2024-02-15T08:50:07;101773.34;;;-11.79;65.91
71697;BME280;68167;59.120;37.898;2024-02-15T08:52:37;101850.91;;;-11.32;65.96
71697;BME280;68167;59.120;37.898;2024-02-15T08:55:10;101857.25;;;-11.20;65.23
71697;BME280;68167;59.120;37.898;2024-02-15T08:57:37;101737.34;;;-11.77;65.76
71697;BME280;68167;59.120;37.898;2024-02-15T09:00:07;101841.09;;;-11.03;66.05
71697;BME280;68167;59.120;37.898;2024-02-15T09:02:40;101840.41;;;-11.07;65.64
71697;BME280;68167;59.120;37.898;2024-02-15T09:05:06;101821.84;;;-11.13;65.43
71697;BME280;68167;59.120;37.898;2024-02-15T09:07:33;101821.84;;;-10.94;65.71
71697;BME280;68167;59.120;37.898;2024-02-15T09:09:59;101834.28;;;-10.85;65.23
71697;BME280;68167;59.120;37.898;2024-02-15T09:12:25;101842.44;;;-10.76;65.76
71697;BME280;68167;59.120;37.898;2024-02-15T09:14:51;101761.72;;;-11.09;65.52
71697;BME280;68167;59.120;37.898;2024-02-15T09:17:18;101771.13;;;-10.91;65.38
71697;BME280;68167;59.120;37.898;2024-02-15T09:19:47;101738.25;;;-11.03;65.79
71697;BME280;68167;59.120;37.898;2024-02-15T09:22:15;101846.19;;;-10.45;64.82
71697;BME280;68167;59.120;37.898;2024-02-15T09:24:41;101836.09;;;-10.50;64.86
71697;BME280;68167;59.120;37.898;2024-02-15T09:27:08;101767.59;;;-10.88;65.17
71697;BME280;68167;59.120;37.898;2024-02-15T09:29:38;101765.72;;;-10.85;66.05
71697;BME280;68167;59.120;37.898;2024-02-15T09:32:06;101845.16;;;-10.24;66.35
71697;BME280;68167;59.120;37.898;2024-02-15T09:34:33;101818.44;;;-10.21;66.62
71697;BME280;68167;59.120;37.898;2024-02-15T09:36:59;101818.50;;;-10.06;66.86
71697;BME280;68167;59.120;37.898;2024-02-15T09:39:25;101812.00;;;-9.95;66.34
71697;BME280;68167;59.120;37.898;2024-02-15T09:41:52;101840.09;;;-9.74;66.42
71697;BME280;68167;59.120;37.898;2024-02-15T09:44:27;101831.47;;;-9.73;66.59
71697;BME280;68167;59.120;37.898;2024-02-15T09:47:03;101828.97;;;-9.74;65.75
71697;BME280;68167;59.120;37.898;2024-02-15T09:49:37;101738.19;;;-10.29;65.61
71697;BME280;68167;59.120;37.898;2024-02-15T09:52:09;101828.53;;;-9.82;64.82
71697;BME280;68167;59.120;37.898;2024-02-15T09:54:42;101799.53;;;-9.86;65.56
71697;BME280;68167;59.120;37.898;2024-02-15T09:57:10;101805.34;;;-9.82;65.51
71697;BME280;68167;59.120;37.898;2024-02-15T09:59:38;101743.25;;;-10.11;66.07
71697;BME280;68167;59.120;37.898;2024-02-15T10:02:05;101792.75;;;-9.71;65.17
71697;BME280;68167;59.120;37.898;2024-02-15T10:04:39;101771.28;;;-9.87;66.00
71697;BME280;68167;59.120;37.898;2024-02-15T10:07:06;101826.00;;;-9.49;65.96
71697;BME280;68167;59.120;37.898;2024-02-15T10:09:35;101808.88;;;-9.50;66.09
71697;BME280;68167;59.120;37.898;2024-02-15T10:12:05;101740.97;;;-9.82;66.13
71697;BME280;68167;59.120;37.898;2024-02-15T10:14:35;101810.72;;;-9.19;66.85
71697;BME280;68167;59.120;37.898;2024-02-15T10:17:10;101803.16;;;-9.07;66.61
71697;BME280;68167;59.120;37.898;2024-02-15T10:19:40;101771.22;;;-9.04;66.87
71697;BME280;68167;59.120;37.898;2024-02-15T10:22:09;101663.91;;;-9.54;66.14
71697;BME280;68167;59.120;37.898;2024-02-15T10:24:36;101807.78;;;-8.65;66.83
71697;BME280;68167;59.120;37.898;2024-02-15T10:27:05;101822.44;;;-8.49;66.07
71697;BME280;68167;59.120;37.898;2024-02-15T10:29:36;101816.03;;;-8.58;66.23
71697;BME280;68167;59.120;37.898;2024-02-15T10:32:04;101773.81;;;-8.88;66.04
71697;BME280;68167;59.120;37.898;2024-02-15T10:34:43;101777.22;;;-8.88;66.45
71697;BME280;68167;59.120;37.898;2024-02-15T10:37:14;101783.81;;;-8.82;67.01
71697;BME280;68167;59.120;37.898;2024-02-15T10:39:45;101713.81;;;-9.23;66.55
71697;BME280;68167;59.120;37.898;2024-02-15T10:42:12;101783.56;;;-8.78;67.44
71697;BME280;68167;59.120;37.898;2024-02-15T10:44:39;101771.81;;;-8.83;66.43
71697;BME280;68167;59.120;37.898;2024-02-15T10:47:07;101709.69;;;-9.10;66.71
71697;BME280;68167;59.120;37.898;2024-02-15T10:49:35;101778.06;;;-8.72;67.12
71697;BME280;68167;59.120;37.898;2024-02-15T10:52:04;101797.22;;;-8.60;65.92
71697;BME280;68167;59.120;37.898;2024-02-15T10:57:10;101803.38;;;-8.78;66.76
71697;BME280;68167;59.120;37.898;2024-02-15T10:59:38;101725.38;;;-9.31;67.14
71697;BME280;68167;59.120;37.898;2024-02-15T11:04:53;101723.00;;;-9.51;67.13
71697;BME280;68167;59.120;37.898;2024-02-15T11:07:24;101781.28;;;-9.15;66.74
71697;BME280;68167;59.120;37.898;2024-02-15T11:09:54;101800.56;;;-9.07;67.03
71697;BME280;68167;59.120;37.898;2024-02-15T11:12:24;101752.81;;;-9.29;68.25
71697;BME280;68167;59.120;37.898;2024-02-15T11:14:52;101788.94;;;-9.14;68.71
71697;BME280;68167;59.120;37.898;2024-02-15T11:20:09;101752.97;;;-9.33;68.83
71697;BME280;68167;59.120;37.898;2024-02-15T11:22:37;101756.56;;;-9.35;68.07
71697;BME280;68167;59.120;37.898;2024-02-15T11:25:05;101712.81;;;-9.70;68.20
71697;BME280;68167;59.120;37.898;2024-02-15T11:27:38;101783.44;;;-9.23;68.81
71697;BME280;68167;59.120;37.898;2024-02-15T11:30:07;101711.66;;;-9.64;68.18
71697;BME280;68167;59.120;37.898;2024-02-15T11:32:45;101802.47;;;-9.26;67.57
71697;BME280;68167;59.120;37.898;2024-02-15T11:40:25;101762.34;;;-9.47;68.44
71697;BME280;68167;59.120;37.898;2024-02-15T11:42:59;101720.16;;;-9.95;67.56
71697;BME280;68167;59.120;37.898;2024-02-15T11:45:27;101789.00;;;-9.48;68.47
71697;BME280;68167;59.120;37.898;2024-02-15T11:47:58;101788.03;;;-9.46;67.78
71697;BME280;68167;59.120;37.898;2024-02-15T11:50:27;101697.88;;;-9.96;67.55
71697;BME280;68167;59.120;37.898;2024-02-15T11:53:02;101766.53;;;-9.62;68.11
71697;BME280;68167;59.120;37.898;2024-02-15T11:55:35;101786.59;;;-9.51;67.53
71697;BME280;68167;59.120;37.898;2024-02-15T11:58:03;101780.00;;;-9.57;67.84
71697;BME280;68167;59.120;37.898;2024-02-15T12:00:36;101778.72;;;-9.48;68.38
71697;BME280;68167;59.120;37.898;2024-02-15T12:03:21;101779.78;;;-9.52;67.55
71697;BME280;68167;59.120;37.898;2024-02-15T12:06:32;101780.00;;;-9.57;68.69
71697;BME280;68167;59.120;37.898;2024-02-15T12:09:26;101616.06;;;-10.74;67.69
71697;BME280;68167;59.120;37.898;2024-02-15T12:12:12;101733.84;;;-9.94;68.62
71697;BME280;68167;59.120;37.898;2024-02-15T12:15:00;101786.56;;;-9.84;68.79
71697;BME280;68167;59.120;37.898;2024-02-15T12:17:46;101760.34;;;-10.10;68.36
71697;BME280;68167;59.120;37.898;2024-02-15T12:20:31;101772.09;;;-10.04;69.49
71697;BME280;68167;59.120;37.898;2024-02-15T12:22:58;101697.34;;;-10.53;68.80
71697;BME280;68167;59.120;37.898;2024-02-15T12:25:29;101693.84;;;-10.52;69.24
71697;BME280;68167;59.120;37.898;2024-02-15T12:28:00;101682.03;;;-10.73;69.29
71697;BME280;68167;59.120;37.898;2024-02-15T12:30:34;101668.16;;;-10.88;69.44
71697;BME280;68167;59.120;37.898;2024-02-15T12:33:12;101774.97;;;-10.27;69.53
71697;BME280;68167;59.120;37.898;2024-02-15T12:35:45;101781.03;;;-10.28;69.67
71697;BME280;68167;59.120;37.898;2024-02-15T12:38:14;101755.09;;;-10.41;69.48
71697;BME280;68167;59.120;37.898;2024-02-15T12:40:43;101716.53;;;-10.60;69.69
71697;BME280;68167;59.120;37.898;2024-02-15T12:43:12;101707.41;;;-10.84;69.96
71697;BME280;68167;59.120;37.898;2024-02-15T12:45:40;101763.53;;;-10.56;68.97
71697;BME280;68167;59.120;37.898;2024-02-15T12:48:08;101746.72;;;-10.63;69.28
71697;BME280;68167;59.120;37.898;2024-02-15T12:50:36;101754.84;;;-10.73;69.52
71697;BME280;68167;59.120;37.898;2024-02-15T12:53:02;101790.59;;;-10.67;69.11
71697;BME280;68167;59.120;37.898;2024-02-15T12:55:33;101731.81;;;-10.93;70.09